sensor_id;sensor_type;location;lat;lon;timestamp;temperature;humidity
37846;DHT22;23686;49.828;8.702;2022-12-10T00:01:30;3.10;99.90
37846;DHT22;23686;49.828;8.702;2022-12-10T00:03:56;3.10;99.90
37846;DHT22;23686;49.828;8.702;2022-12-10T00:06:22;3.10;99.90
37846;DHT22;23686;49.828;8.702;2022-12-10T00:08:48;3.10;99.90
37846;DHT22;23686;49.828;8.702;2022-12-10T00:11:15;3.10;99.90
37846;DHT22;23686;49.828;8.702;2022-12-10T00:13:40;3.10;99.90
37846;DHT22;23686;49.828;8.702;2022-12-10T00:16:07;3.10;99.90
37846;DHT22;23686;49.828;8.702;2022-12-10T00:18:32;3.10;99.90
37846;DHT22;23686;49.828;8.702;2022-12-10T00:20:58;3.10;99.90
37846;DHT22;23686;49.828;8.702;2022-12-10T00:23:23;3.00;99.90
37846;DHT22;23686;49.828;8.702;2022-12-10T00:25:49;3.00;99.90
37846;DHT22;23686;49.828;8.702;2022-12-10T00:28:14;3.00;99.90
37846;DHT22;23686;49.828;8.702;2022-12-10T00:30:40;3.00;99.90
37846;DHT22;23686;49.828;8.702;2022-12-10T00:33:05;3.00;99.90
37846;DHT22;23686;49.828;8.702;2022-12-10T00:35:34;3.00;99.90
37846;DHT22;23686;49.828;8.702;2022-12-10T00:38:00;3.00;99.90
37846;DHT22;23686;49.828;8.702;2022-12-10T00:40:25;3.00;99.90
37846;DHT22;23686;49.828;8.702;2022-12-10T00:42:50;3.10;99.90
37846;DHT22;23686;49.828;8.702;2022-12-10T00:45:16;3.10;99.90
37846;DHT22;23686;49.828;8.702;2022-12-10T00:47:41;3.10;99.90
37846;DHT22;23686;49.828;8.702;2022-12-10T00:50:07;3.10;99.90
37846;DHT22;23686;49.828;8.702;2022-12-10T00:52:32;3.00;99.90
37846;DHT22;23686;49.828;8.702;2022-12-10T00:54:58;3.00;99.90
37846;DHT22;23686;49.828;8.702;2022-12-10T00:57:23;3.00;99.90
37846;DHT22;23686;49.828;8.702;2022-12-10T00:59:49;3.00;99.90
37846;DHT22;23686;49.828;8.702;2022-12-10T01:02:14;3.00;99.90
37846;DHT22;23686;49.828;8.702;2022-12-10T01:04:40;3.00;99.90
37846;DHT22;23686;49.828;8.702;2022-12-10T01:07:05;2.90;99.90
37846;DHT22;23686;49.828;8.702;2022-12-10T01:09:31;2.90;99.90
37846;DHT22;23686;49.828;8.702;2022-12-10T01:11:59;2.90;99.90
37846;DHT22;23686;49.828;8.702;2022-12-10T01:14:28;2.90;99.90
37846;DHT22;23686;49.828;8.702;2022-12-10T01:16:55;2.90;99.90
37846;DHT22;23686;49.828;8.702;2022-12-10T01:19:20;2.90;99.90
37846;DHT22;23686;49.828;8.702;2022-12-10T01:21:49;2.90;99.90
37846;DHT22;23686;49.828;8.702;2022-12-10T01:24:15;3.00;99.90
37846;DHT22;23686;49.828;8.702;2022-12-10T01:26:40;2.90;99.90
37846;DHT22;23686;49.828;8.702;2022-12-10T01:29:06;2.90;99.90
37846;DHT22;23686;49.828;8.702;2022-12-10T01:31:35;2.90;99.90
37846;DHT22;23686;49.828;8.702;2022-12-10T01:34:01;2.90;99.90
37846;DHT22;23686;49.828;8.702;2022-12-10T01:36:28;2.90;99.90
37846;DHT22;23686;49.828;8.702;2022-12-10T01:38:54;2.90;99.90
37846;DHT22;23686;49.828;8.702;2022-12-10T01:41:24;2.90;99.90
37846;DHT22;23686;49.828;8.702;2022-12-10T01:46:18;2.90;99.90
37846;DHT22;23686;49.828;8.702;2022-12-10T01:48:44;2.90;99.90
37846;DHT22;23686;49.828;8.702;2022-12-10T01:51:10;2.90;99.90
37846;DHT22;23686;49.828;8.702;2022-12-10T01:53:36;2.90;99.90
37846;DHT22;23686;49.828;8.702;2022-12-10T01:56:01;2.90;99.90
37846;DHT22;23686;49.828;8.702;2022-12-10T01:58:27;2.90;99.90
37846;DHT22;23686;49.828;8.702;2022-12-10T02:06:25;2.90;99.90
37846;DHT22;23686;49.828;8.702;2022-12-10T02:09:04;2.90;99.90
37846;DHT22;23686;49.828;8.702;2022-12-10T02:14:08;2.90;99.90
37846;DHT22;23686;49.828;8.702;2022-12-10T02:16:38;2.80;99.90
37846;DHT22;23686;49.828;8.702;2022-12-10T02:21:50;2.90;99.90
37846;DHT22;23686;49.828;8.702;2022-12-10T02:24:19;2.90;99.90
37846;DHT22;23686;49.828;8.702;2022-12-10T02:29:31;2.90;99.90
37846;DHT22;23686;49.828;8.702;2022-12-10T02:34:23;2.90;99.90
37846;DHT22;23686;49.828;8.702;2022-12-10T02:36:50;2.80;99.90
37846;DHT22;23686;49.828;8.702;2022-12-10T02:39:23;2.80;99.90
37846;DHT22;23686;49.828;8.702;2022-12-10T02:41:52;2.80;99.90
37846;DHT22;23686;49.828;8.702;2022-12-10T02:44:17;2.80;99.90
37846;DHT22;23686;49.828;8.702;2022-12-10T02:46:44;2.80;99.90
37846;DHT22;23686;49.828;8.702;2022-12-10T02:49:11;2.80;99.90
37846;DHT22;23686;49.828;8.702;2022-12-10T02:51:38;2.80;99.90
37846;DHT22;23686;49.828;8.702;2022-12-10T02:54:04;2.80;99.90
37846;DHT22;23686;49.828;8.702;2022-12-10T03:03:50;2.80;99.90
37846;DHT22;23686;49.828;8.702;2022-12-10T03:06:20;2.80;99.90
37846;DHT22;23686;49.828;8.702;2022-12-10T03:08:51;2.70;99.90
37846;DHT22;23686;49.828;8.702;2022-12-10T03:11:21;2.70;99.90
37846;DHT22;23686;49.828;8.702;2022-12-10T03:13:50;2.70;99.90
37846;DHT22;23686;49.828;8.702;2022-12-10T03:16:17;2.70;99.90
37846;DHT22;23686;49.828;8.702;2022-12-10T03:18:43;2.70;99.90
37846;DHT22;23686;49.828;8.702;2022-12-10T03:21:10;2.70;99.90
37846;DHT22;23686;49.828;8.702;2022-12-10T03:23:37;2.60;99.90
37846;DHT22;23686;49.828;8.702;2022-12-10T03:26:05;2.60;99.90
37846;DHT22;23686;49.828;8.702;2022-12-10T03:28:36;2.60;99.90
37846;DHT22;23686;49.828;8.702;2022-12-10T03:31:03;2.60;99.90
37846;DHT22;23686;49.828;8.702;2022-12-10T03:33:29;2.50;99.90
37846;DHT22;23686;49.828;8.702;2022-12-10T03:35:55;2.50;99.90
37846;DHT22;23686;49.828;8.702;2022-12-10T03:38:20;2.50;99.90
37846;DHT22;23686;49.828;8.702;2022-12-10T03:40:46;2.60;99.90
37846;DHT22;23686;49.828;8.702;2022-12-10T03:43:12;2.60;99.90
37846;DHT22;23686;49.828;8.702;2022-12-10T03:45:38;2.60;99.90
37846;DHT22;23686;49.828;8.702;2022-12-10T03:48:04;2.60;99.90
37846;DHT22;23686;49.828;8.702;2022-12-10T03:50:29;2.50;99.90
37846;DHT22;23686;49.828;8.702;2022-12-10T03:52:55;2.50;99.90
37846;DHT22;23686;49.828;8.702;2022-12-10T03:55:20;2.60;99.90
37846;DHT22;23686;49.828;8.702;2022-12-10T03:57:46;2.60;99.90
37846;DHT22;23686;49.828;8.702;2022-12-10T04:00:11;2.60;99.90
37846;DHT22;23686;49.828;8.702;2022-12-10T04:02:37;2.50;99.90
37846;DHT22;23686;49.828;8.702;2022-12-10T04:05:02;2.50;99.90
37846;DHT22;23686;49.828;8.702;2022-12-10T04:07:29;2.50;99.90
37846;DHT22;23686;49.828;8.702;2022-12-10T04:09:55;2.50;99.90
37846;DHT22;23686;49.828;8.702;2022-12-10T04:12:20;2.50;99.90
37846;DHT22;23686;49.828;8.702;2022-12-10T04:14:45;2.50;99.90
37846;DHT22;23686;49.828;8.702;2022-12-10T04:17:31;2.50;99.90
37846;DHT22;23686;49.828;8.702;2022-12-10T04:19:56;2.50;99.90
37846;DHT22;23686;49.828;8.702;2022-12-10T04:22:22;2.50;99.90
37846;DHT22;23686;49.828;8.702;2022-12-10T04:25:06;2.50;99.90
37846;DHT22;23686;49.828;8.702;2022-12-10T04:27:51;2.40;99.90
37846;DHT22;23686;49.828;8.702;2022-12-10T04:30:17;2.40;99.90
37846;DHT22;23686;49.828;8.702;2022-12-10T04:32:42;2.40;99.90
37846;DHT22;23686;49.828;8.702;2022-12-10T04:35:08;2.40;99.90
37846;DHT22;23686;49.828;8.702;2022-12-10T04:37:34;2.40;99.90
37846;DHT22;23686;49.828;8.702;2022-12-10T04:39:59;2.40;99.90
37846;DHT22;23686;49.828;8.702;2022-12-10T04:42:25;2.40;99.90
37846;DHT22;23686;49.828;8.702;2022-12-10T04:44:50;2.40;99.90
37846;DHT22;23686;49.828;8.702;2022-12-10T04:47:16;2.40;99.90
37846;DHT22;23686;49.828;8.702;2022-12-10T04:49:42;2.40;99.90
37846;DHT22;23686;49.828;8.702;2022-12-10T04:52:07;2.40;99.90
37846;DHT22;23686;49.828;8.702;2022-12-10T04:54:33;2.40;99.90
37846;DHT22;23686;49.828;8.702;2022-12-10T04:56:59;2.40;99.90
37846;DHT22;23686;49.828;8.702;2022-12-10T04:59:24;2.40;99.90
37846;DHT22;23686;49.828;8.702;2022-12-10T05:01:50;2.40;99.90
37846;DHT22;23686;49.828;8.702;2022-12-10T05:04:16;2.50;99.90
37846;DHT22;23686;49.828;8.702;2022-12-10T05:06:42;2.50;99.90
37846;DHT22;23686;49.828;8.702;2022-12-10T05:09:09;2.40;99.90
37846;DHT22;23686;49.828;8.702;2022-12-10T05:11:35;2.40;99.90
37846;DHT22;23686;49.828;8.702;2022-12-10T05:14:01;2.40;99.90
37846;DHT22;23686;49.828;8.702;2022-12-10T05:16:27;2.40;99.90
37846;DHT22;23686;49.828;8.702;2022-12-10T05:18:53;2.40;99.90
37846;DHT22;23686;49.828;8.702;2022-12-10T05:21:19;2.50;99.90
37846;DHT22;23686;49.828;8.702;2022-12-10T05:23:46;2.50;99.90
37846;DHT22;23686;49.828;8.702;2022-12-10T05:26:13;2.50;99.90
37846;DHT22;23686;49.828;8.702;2022-12-10T05:28:40;2.50;99.90
37846;DHT22;23686;49.828;8.702;2022-12-10T05:31:11;2.50;99.90
37846;DHT22;23686;49.828;8.702;2022-12-10T05:33:36;2.50;99.90
37846;DHT22;23686;49.828;8.702;2022-12-10T05:36:02;2.50;99.90
37846;DHT22;23686;49.828;8.702;2022-12-10T05:38:29;2.50;99.90
37846;DHT22;23686;49.828;8.702;2022-12-10T05:40:55;2.50;99.90
37846;DHT22;23686;49.828;8.702;2022-12-10T05:43:20;2.50;99.90
37846;DHT22;23686;49.828;8.702;2022-12-10T05:45:46;2.50;99.90
37846;DHT22;23686;49.828;8.702;2022-12-10T05:48:12;2.50;99.90
37846;DHT22;23686;49.828;8.702;2022-12-10T05:50:38;2.50;99.90
37846;DHT22;23686;49.828;8.702;2022-12-10T05:53:03;2.60;99.90
37846;DHT22;23686;49.828;8.702;2022-12-10T05:55:29;2.60;99.90
37846;DHT22;23686;49.828;8.702;2022-12-10T05:57:56;2.60;99.90
37846;DHT22;23686;49.828;8.702;2022-12-10T06:00:22;2.60;99.90
37846;DHT22;23686;49.828;8.702;2022-12-10T06:02:49;2.60;99.90
37846;DHT22;23686;49.828;8.702;2022-12-10T06:05:14;2.60;99.90
37846;DHT22;23686;49.828;8.702;2022-12-10T06:07:40;2.60;99.90
37846;DHT22;23686;49.828;8.702;2022-12-10T06:10:05;2.60;99.90
37846;DHT22;23686;49.828;8.702;2022-12-10T06:12:31;2.70;99.90
37846;DHT22;23686;49.828;8.702;2022-12-10T06:14:56;2.60;99.90
37846;DHT22;23686;49.828;8.702;2022-12-10T06:17:22;2.60;99.90
37846;DHT22;23686;49.828;8.702;2022-12-10T06:19:47;2.60;99.90
37846;DHT22;23686;49.828;8.702;2022-12-10T06:22:13;2.60;99.90
37846;DHT22;23686;49.828;8.702;2022-12-10T06:24:38;2.50;99.90
37846;DHT22;23686;49.828;8.702;2022-12-10T06:27:03;2.60;99.90
37846;DHT22;23686;49.828;8.702;2022-12-10T06:29:30;2.60;99.90
37846;DHT22;23686;49.828;8.702;2022-12-10T06:31:55;2.60;99.90
37846;DHT22;23686;49.828;8.702;2022-12-10T06:34:21;2.60;99.90
37846;DHT22;23686;49.828;8.702;2022-12-10T06:36:47;2.60;99.90
37846;DHT22;23686;49.828;8.702;2022-12-10T06:39:12;2.60;99.90
37846;DHT22;23686;49.828;8.702;2022-12-10T06:41:38;2.60;99.90
37846;DHT22;23686;49.828;8.702;2022-12-10T06:44:06;2.60;99.90
37846;DHT22;23686;49.828;8.702;2022-12-10T06:46:32;2.70;99.90
37846;DHT22;23686;49.828;8.702;2022-12-10T06:48:57;2.70;99.90
37846;DHT22;23686;49.828;8.702;2022-12-10T06:51:22;2.70;99.90
37846;DHT22;23686;49.828;8.702;2022-12-10T06:53:48;2.80;99.90
37846;DHT22;23686;49.828;8.702;2022-12-10T06:56:17;2.70;99.90
37846;DHT22;23686;49.828;8.702;2022-12-10T06:58:43;2.70;99.90
37846;DHT22;23686;49.828;8.702;2022-12-10T07:01:16;2.80;99.90
37846;DHT22;23686;49.828;8.702;2022-12-10T07:03:42;2.80;99.90
37846;DHT22;23686;49.828;8.702;2022-12-10T07:06:09;2.80;99.90
37846;DHT22;23686;49.828;8.702;2022-12-10T07:08:35;2.80;99.90
37846;DHT22;23686;49.828;8.702;2022-12-10T07:11:04;2.80;99.90
37846;DHT22;23686;49.828;8.702;2022-12-10T07:13:30;2.80;99.90
37846;DHT22;23686;49.828;8.702;2022-12-10T07:15:55;2.80;99.90
37846;DHT22;23686;49.828;8.702;2022-12-10T07:18:21;2.80;99.90
37846;DHT22;23686;49.828;8.702;2022-12-10T07:20:46;2.80;99.90
37846;DHT22;23686;49.828;8.702;2022-12-10T07:23:12;2.70;99.90
37846;DHT22;23686;49.828;8.702;2022-12-10T07:25:37;2.80;99.90
37846;DHT22;23686;49.828;8.702;2022-12-10T07:28:02;2.80;99.90
37846;DHT22;23686;49.828;8.702;2022-12-10T07:30:28;2.80;99.90
37846;DHT22;23686;49.828;8.702;2022-12-10T07:32:53;2.80;99.90
37846;DHT22;23686;49.828;8.702;2022-12-10T07:35:19;2.80;99.90
37846;DHT22;23686;49.828;8.702;2022-12-10T07:37:44;2.70;99.90
37846;DHT22;23686;49.828;8.702;2022-12-10T07:40:10;2.80;99.90
37846;DHT22;23686;49.828;8.702;2022-12-10T07:42:35;2.70;99.90
37846;DHT22;23686;49.828;8.702;2022-12-10T07:45:01;2.70;99.90
37846;DHT22;23686;49.828;8.702;2022-12-10T07:47:26;2.70;99.90
37846;DHT22;23686;49.828;8.702;2022-12-10T07:49:52;2.70;99.90
37846;DHT22;23686;49.828;8.702;2022-12-10T07:52:18;2.80;99.90
37846;DHT22;23686;49.828;8.702;2022-12-10T07:54:43;2.70;99.90
37846;DHT22;23686;49.828;8.702;2022-12-10T07:57:09;2.70;99.90
37846;DHT22;23686;49.828;8.702;2022-12-10T07:59:34;2.70;99.90
37846;DHT22;23686;49.828;8.702;2022-12-10T08:02:00;2.70;99.90
37846;DHT22;23686;49.828;8.702;2022-12-10T08:04:27;2.70;99.90
37846;DHT22;23686;49.828;8.702;2022-12-10T08:06:53;2.70;99.90
37846;DHT22;23686;49.828;8.702;2022-12-10T08:09:19;2.80;99.90
37846;DHT22;23686;49.828;8.702;2022-12-10T08:11:44;2.80;99.90
37846;DHT22;23686;49.828;8.702;2022-12-10T08:14:10;2.80;99.90
37846;DHT22;23686;49.828;8.702;2022-12-10T08:16:35;2.70;99.90
37846;DHT22;23686;49.828;8.702;2022-12-10T08:19:01;2.80;99.90
37846;DHT22;23686;49.828;8.702;2022-12-10T08:21:28;2.80;99.90
37846;DHT22;23686;49.828;8.702;2022-12-10T08:23:54;2.80;99.90
37846;DHT22;23686;49.828;8.702;2022-12-10T08:26:24;2.90;99.90
37846;DHT22;23686;49.828;8.702;2022-12-10T08:28:50;2.90;99.90
37846;DHT22;23686;49.828;8.702;2022-12-10T08:31:16;2.90;99.90
37846;DHT22;23686;49.828;8.702;2022-12-10T08:33:42;3.00;99.90
37846;DHT22;23686;49.828;8.702;2022-12-10T08:36:08;3.10;99.90
37846;DHT22;23686;49.828;8.702;2022-12-10T08:38:34;3.10;99.90
37846;DHT22;23686;49.828;8.702;2022-12-10T08:41:05;3.10;99.90
37846;DHT22;23686;49.828;8.702;2022-12-10T08:43:30;3.00;99.90
37846;DHT22;23686;49.828;8.702;2022-12-10T08:45:57;3.10;99.90
37846;DHT22;23686;49.828;8.702;2022-12-10T08:48:23;3.00;99.90
37846;DHT22;23686;49.828;8.702;2022-12-10T08:50:49;3.00;99.90
37846;DHT22;23686;49.828;8.702;2022-12-10T08:53:14;3.00;99.90
37846;DHT22;23686;49.828;8.702;2022-12-10T08:55:40;3.00;99.90
37846;DHT22;23686;49.828;8.702;2022-12-10T08:58:05;3.10;99.90
37846;DHT22;23686;49.828;8.702;2022-12-10T09:00:31;3.10;99.90
37846;DHT22;23686;49.828;8.702;2022-12-10T09:02:56;3.20;99.90
37846;DHT22;23686;49.828;8.702;2022-12-10T09:05:22;3.20;99.90
37846;DHT22;23686;49.828;8.702;2022-12-10T09:07:48;3.20;99.90
37846;DHT22;23686;49.828;8.702;2022-12-10T09:10:13;3.30;99.90
37846;DHT22;23686;49.828;8.702;2022-12-10T09:12:39;3.30;99.90
37846;DHT22;23686;49.828;8.702;2022-12-10T09:15:05;3.30;99.90
37846;DHT22;23686;49.828;8.702;2022-12-10T09:17:30;3.40;99.90
37846;DHT22;23686;49.828;8.702;2022-12-10T09:19:56;3.30;99.90
37846;DHT22;23686;49.828;8.702;2022-12-10T09:22:21;3.40;99.90
37846;DHT22;23686;49.828;8.702;2022-12-10T09:24:47;3.50;99.90
37846;DHT22;23686;49.828;8.702;2022-12-10T09:27:12;3.50;99.90
37846;DHT22;23686;49.828;8.702;2022-12-10T09:29:38;3.50;99.90
37846;DHT22;23686;49.828;8.702;2022-12-10T09:32:03;3.50;99.90
37846;DHT22;23686;49.828;8.702;2022-12-10T09:34:29;3.60;99.90
37846;DHT22;23686;49.828;8.702;2022-12-10T09:36:54;3.60;99.90
37846;DHT22;23686;49.828;8.702;2022-12-10T09:39:20;3.60;99.90
37846;DHT22;23686;49.828;8.702;2022-12-10T09:46:50;3.50;99.90
37846;DHT22;23686;49.828;8.702;2022-12-10T09:51:45;3.50;99.90
37846;DHT22;23686;49.828;8.702;2022-12-10T09:56:51;3.60;99.90
37846;DHT22;23686;49.828;8.702;2022-12-10T09:59:19;3.60;99.90
37846;DHT22;23686;49.828;8.702;2022-12-10T10:01:45;3.60;99.90
37846;DHT22;23686;49.828;8.702;2022-12-10T10:04:12;3.70;99.90
37846;DHT22;23686;49.828;8.702;2022-12-10T10:06:37;3.60;99.90
37846;DHT22;23686;49.828;8.702;2022-12-10T10:09:04;3.60;99.90
37846;DHT22;23686;49.828;8.702;2022-12-10T10:11:31;3.70;99.90
37846;DHT22;23686;49.828;8.702;2022-12-10T10:17:02;3.70;99.90
37846;DHT22;23686;49.828;8.702;2022-12-10T10:19:29;3.80;99.90
37846;DHT22;23686;49.828;8.702;2022-12-10T10:21:55;3.80;99.90
37846;DHT22;23686;49.828;8.702;2022-12-10T10:24:26;3.80;99.90
37846;DHT22;23686;49.828;8.702;2022-12-10T10:26:56;3.70;99.90
37846;DHT22;23686;49.828;8.702;2022-12-10T10:29:22;3.70;99.90
37846;DHT22;23686;49.828;8.702;2022-12-10T10:32:10;3.80;99.90
37846;DHT22;23686;49.828;8.702;2022-12-10T10:34:35;3.80;99.90
37846;DHT22;23686;49.828;8.702;2022-12-10T10:37:03;3.80;99.90
37846;DHT22;23686;49.828;8.702;2022-12-10T10:39:30;3.70;99.90
37846;DHT22;23686;49.828;8.702;2022-12-10T10:41:57;3.80;99.90
37846;DHT22;23686;49.828;8.702;2022-12-10T10:44:23;3.80;99.90
37846;DHT22;23686;49.828;8.702;2022-12-10T10:46:51;3.80;99.90
37846;DHT22;23686;49.828;8.702;2022-12-10T10:51:45;3.90;99.90
37846;DHT22;23686;49.828;8.702;2022-12-10T10:54:11;3.90;99.90
37846;DHT22;23686;49.828;8.702;2022-12-10T10:56:40;3.90;99.90
37846;DHT22;23686;49.828;8.702;2022-12-10T10:59:17;4.00;99.90
37846;DHT22;23686;49.828;8.702;2022-12-10T11:01:52;3.90;99.90
37846;DHT22;23686;49.828;8.702;2022-12-10T11:04:24;3.90;99.90
37846;DHT22;23686;49.828;8.702;2022-12-10T11:06:53;3.90;99.90
37846;DHT22;23686;49.828;8.702;2022-12-10T11:09:20;3.90;99.90
37846;DHT22;23686;49.828;8.702;2022-12-10T11:12:07;3.80;99.90
37846;DHT22;23686;49.828;8.702;2022-12-10T11:14:45;3.90;99.90
37846;DHT22;23686;49.828;8.702;2022-12-10T11:17:17;4.00;99.90
37846;DHT22;23686;49.828;8.702;2022-12-10T11:19:44;4.00;99.90
37846;DHT22;23686;49.828;8.702;2022-12-10T11:22:20;4.00;99.90
37846;DHT22;23686;49.828;8.702;2022-12-10T11:24:46;4.00;99.90
37846;DHT22;23686;49.828;8.702;2022-12-10T11:27:14;4.00;99.90
37846;DHT22;23686;49.828;8.702;2022-12-10T11:29:46;4.10;99.90
37846;DHT22;23686;49.828;8.702;2022-12-10T11:37:43;4.00;99.90
37846;DHT22;23686;49.828;8.702;2022-12-10T11:40:15;4.10;99.90
37846;DHT22;23686;49.828;8.702;2022-12-10T11:42:50;4.10;99.90
37846;DHT22;23686;49.828;8.702;2022-12-10T11:45:23;4.10;99.90
37846;DHT22;23686;49.828;8.702;2022-12-10T11:47:56;4.00;99.90
37846;DHT22;23686;49.828;8.702;2022-12-10T11:50:43;4.00;99.90
37846;DHT22;23686;49.828;8.702;2022-12-10T11:55:58;4.00;99.90
37846;DHT22;23686;49.828;8.702;2022-12-10T11:58:33;4.00;99.90
37846;DHT22;23686;49.828;8.702;2022-12-10T12:01:06;4.00;99.90
37846;DHT22;23686;49.828;8.702;2022-12-10T12:11:30;4.00;99.90
37846;DHT22;23686;49.828;8.702;2022-12-10T12:13:59;4.10;99.90
37846;DHT22;23686;49.828;8.702;2022-12-10T12:16:40;4.10;99.90
37846;DHT22;23686;49.828;8.702;2022-12-10T12:19:16;4.10;99.90
37846;DHT22;23686;49.828;8.702;2022-12-10T12:21:43;4.10;99.90
37846;DHT22;23686;49.828;8.702;2022-12-10T12:24:12;4.10;99.90
37846;DHT22;23686;49.828;8.702;2022-12-10T12:26:58;4.10;99.90
37846;DHT22;23686;49.828;8.702;2022-12-10T12:29:27;4.20;99.90
37846;DHT22;23686;49.828;8.702;2022-12-10T12:31:57;4.10;99.90
37846;DHT22;23686;49.828;8.702;2022-12-10T12:34:29;4.10;99.90
37846;DHT22;23686;49.828;8.702;2022-12-10T12:36:58;4.20;99.90
37846;DHT22;23686;49.828;8.702;2022-12-10T12:39:28;4.20;99.90
37846;DHT22;23686;49.828;8.702;2022-12-10T12:42:17;4.20;99.90
37846;DHT22;23686;49.828;8.702;2022-12-10T12:50:05;4.20;99.90
37846;DHT22;23686;49.828;8.702;2022-12-10T12:52:35;4.20;99.90
37846;DHT22;23686;49.828;8.702;2022-12-10T12:55:46;4.10;99.90
37846;DHT22;23686;49.828;8.702;2022-12-10T12:58:11;4.10;99.90
37846;DHT22;23686;49.828;8.702;2022-12-10T13:00:39;4.10;99.90
37846;DHT22;23686;49.828;8.702;2022-12-10T13:05:50;4.10;99.90
37846;DHT22;23686;49.828;8.702;2022-12-10T13:10:52;4.10;99.90
37846;DHT22;23686;49.828;8.702;2022-12-10T13:18:45;4.10;99.90
37846;DHT22;23686;49.828;8.702;2022-12-10T13:21:30;4.10;99.90
37846;DHT22;23686;49.828;8.702;2022-12-10T13:24:09;4.10;99.90
37846;DHT22;23686;49.828;8.702;2022-12-10T13:26:35;4.20;99.90
37846;DHT22;23686;49.828;8.702;2022-12-10T13:32:12;4.20;99.90
37846;DHT22;23686;49.828;8.702;2022-12-10T13:34:38;4.20;99.90
37846;DHT22;23686;49.828;8.702;2022-12-10T13:37:05;4.20;99.90
37846;DHT22;23686;49.828;8.702;2022-12-10T13:44:59;4.10;99.90
37846;DHT22;23686;49.828;8.702;2022-12-10T13:49:59;4.10;99.90
37846;DHT22;23686;49.828;8.702;2022-12-10T13:52:26;4.10;99.90
37846;DHT22;23686;49.828;8.702;2022-12-10T13:55:00;4.00;99.90
37846;DHT22;23686;49.828;8.702;2022-12-10T14:00:21;4.00;99.90
37846;DHT22;23686;49.828;8.702;2022-12-10T14:05:20;4.10;99.90
37846;DHT22;23686;49.828;8.702;2022-12-10T14:07:48;4.10;99.90
37846;DHT22;23686;49.828;8.702;2022-12-10T14:10:16;4.10;99.90
37846;DHT22;23686;49.828;8.702;2022-12-10T14:12:42;4.00;99.90
37846;DHT22;23686;49.828;8.702;2022-12-10T14:15:27;4.00;99.90
37846;DHT22;23686;49.828;8.702;2022-12-10T14:17:54;4.00;99.90
37846;DHT22;23686;49.828;8.702;2022-12-10T14:20:23;4.00;99.90
37846;DHT22;23686;49.828;8.702;2022-12-10T14:22:53;4.00;99.90
37846;DHT22;23686;49.828;8.702;2022-12-10T14:25:42;3.90;99.90
37846;DHT22;23686;49.828;8.702;2022-12-10T14:28:15;3.90;99.90
37846;DHT22;23686;49.828;8.702;2022-12-10T14:30:42;4.00;99.90
37846;DHT22;23686;49.828;8.702;2022-12-10T14:33:08;4.00;99.90
37846;DHT22;23686;49.828;8.702;2022-12-10T14:35:35;4.00;99.90
37846;DHT22;23686;49.828;8.702;2022-12-10T14:38:00;4.00;99.90
37846;DHT22;23686;49.828;8.702;2022-12-10T14:42:54;3.90;99.90
37846;DHT22;23686;49.828;8.702;2022-12-10T14:45:20;3.90;99.90
37846;DHT22;23686;49.828;8.702;2022-12-10T14:47:47;4.00;99.90
37846;DHT22;23686;49.828;8.702;2022-12-10T14:50:13;4.00;99.90
37846;DHT22;23686;49.828;8.702;2022-12-10T14:52:40;4.00;99.90
37846;DHT22;23686;49.828;8.702;2022-12-10T14:55:06;4.00;99.90
37846;DHT22;23686;49.828;8.702;2022-12-10T14:57:33;4.00;99.90
37846;DHT22;23686;49.828;8.702;2022-12-10T15:00:00;4.10;99.90
37846;DHT22;23686;49.828;8.702;2022-12-10T15:02:30;4.10;99.90
37846;DHT22;23686;49.828;8.702;2022-12-10T15:04:57;4.00;99.90
37846;DHT22;23686;49.828;8.702;2022-12-10T15:07:23;4.10;99.90
37846;DHT22;23686;49.828;8.702;2022-12-10T15:09:50;4.00;99.90
37846;DHT22;23686;49.828;8.702;2022-12-10T15:12:20;4.00;99.90
37846;DHT22;23686;49.828;8.702;2022-12-10T15:14:47;4.00;99.90
37846;DHT22;23686;49.828;8.702;2022-12-10T15:19:57;4.00;99.90
37846;DHT22;23686;49.828;8.702;2022-12-10T15:22:29;4.00;99.90
37846;DHT22;23686;49.828;8.702;2022-12-10T15:24:55;4.00;99.90
37846;DHT22;23686;49.828;8.702;2022-12-10T15:27:21;4.00;99.90
37846;DHT22;23686;49.828;8.702;2022-12-10T15:29:47;4.00;99.90
37846;DHT22;23686;49.828;8.702;2022-12-10T15:32:14;4.00;99.90
37846;DHT22;23686;49.828;8.702;2022-12-10T15:34:52;4.00;99.90
37846;DHT22;23686;49.828;8.702;2022-12-10T15:37:26;3.90;99.90
37846;DHT22;23686;49.828;8.702;2022-12-10T15:39:53;3.90;99.90
37846;DHT22;23686;49.828;8.702;2022-12-10T15:42:30;3.90;99.90
37846;DHT22;23686;49.828;8.702;2022-12-10T15:44:58;3.90;99.90
37846;DHT22;23686;49.828;8.702;2022-12-10T15:47:24;3.90;99.90
37846;DHT22;23686;49.828;8.702;2022-12-10T15:49:53;3.90;99.90
37846;DHT22;23686;49.828;8.702;2022-12-10T15:52:25;3.90;99.90
37846;DHT22;23686;49.828;8.702;2022-12-10T15:54:52;3.90;99.90
37846;DHT22;23686;49.828;8.702;2022-12-10T15:59:43;3.90;99.90
37846;DHT22;23686;49.828;8.702;2022-12-10T16:04:56;3.90;99.90
37846;DHT22;23686;49.828;8.702;2022-12-10T16:07:22;3.90;99.90
37846;DHT22;23686;49.828;8.702;2022-12-10T16:09:47;3.90;99.90
37846;DHT22;23686;49.828;8.702;2022-12-10T16:12:13;3.90;99.90
37846;DHT22;23686;49.828;8.702;2022-12-10T16:14:42;3.90;99.90
37846;DHT22;23686;49.828;8.702;2022-12-10T16:17:12;3.90;99.90
37846;DHT22;23686;49.828;8.702;2022-12-10T16:19:37;3.80;99.90
37846;DHT22;23686;49.828;8.702;2022-12-10T16:22:04;3.80;99.90
37846;DHT22;23686;49.828;8.702;2022-12-10T16:24:30;3.80;99.90
37846;DHT22;23686;49.828;8.702;2022-12-10T16:26:55;3.80;99.90
37846;DHT22;23686;49.828;8.702;2022-12-10T16:29:21;3.70;99.90
37846;DHT22;23686;49.828;8.702;2022-12-10T16:31:47;3.70;99.90
37846;DHT22;23686;49.828;8.702;2022-12-10T16:34:12;3.80;99.90
37846;DHT22;23686;49.828;8.702;2022-12-10T16:36:38;3.80;99.90
37846;DHT22;23686;49.828;8.702;2022-12-10T16:39:03;3.80;99.90
37846;DHT22;23686;49.828;8.702;2022-12-10T16:41:30;3.80;99.90
37846;DHT22;23686;49.828;8.702;2022-12-10T16:43:55;3.70;99.90
37846;DHT22;23686;49.828;8.702;2022-12-10T16:46:21;3.70;99.90
37846;DHT22;23686;49.828;8.702;2022-12-10T16:48:46;3.70;99.90
37846;DHT22;23686;49.828;8.702;2022-12-10T16:51:17;3.70;99.90
37846;DHT22;23686;49.828;8.702;2022-12-10T16:53:50;3.70;99.90
37846;DHT22;23686;49.828;8.702;2022-12-10T16:56:16;3.60;99.90
37846;DHT22;23686;49.828;8.702;2022-12-10T16:58:42;3.60;99.90
37846;DHT22;23686;49.828;8.702;2022-12-10T17:01:13;3.60;99.90
37846;DHT22;23686;49.828;8.702;2022-12-10T17:03:40;3.60;99.90
37846;DHT22;23686;49.828;8.702;2022-12-10T17:06:05;3.50;99.90
37846;DHT22;23686;49.828;8.702;2022-12-10T17:08:33;3.60;99.90
37846;DHT22;23686;49.828;8.702;2022-12-10T17:10:59;3.50;99.90
37846;DHT22;23686;49.828;8.702;2022-12-10T17:13:43;3.50;99.90
37846;DHT22;23686;49.828;8.702;2022-12-10T17:16:10;3.50;99.90
37846;DHT22;23686;49.828;8.702;2022-12-10T17:18:38;3.50;99.90
37846;DHT22;23686;49.828;8.702;2022-12-10T17:21:04;3.50;99.90
37846;DHT22;23686;49.828;8.702;2022-12-10T17:23:29;3.60;99.90
37846;DHT22;23686;49.828;8.702;2022-12-10T17:25:55;3.50;99.90
37846;DHT22;23686;49.828;8.702;2022-12-10T17:28:22;3.50;99.90